sensor_id;sensor_type;location;lat;lon;timestamp;pressure;altitude;pressure_sealevel;temperature;humidity
55550;BME280;41397;49.972;18.944;2022-11-27T00:00:52;103249.34;;;7.55;89.39
55550;BME280;41397;49.972;18.944;2022-11-27T00:03:58;103255.73;;;7.54;89.49
55550;BME280;41397;49.972;18.944;2022-11-27T00:06:59;103248.73;;;7.45;89.25
55550;BME280;41397;49.972;18.944;2022-11-27T00:10:01;103254.21;;;7.44;89.14
55550;BME280;41397;49.972;18.944;2022-11-27T00:13:02;103246.05;;;7.44;89.36
55550;BME280;41397;49.972;18.944;2022-11-27T00:16:04;103248.57;;;7.50;89.42
55550;BME280;41397;49.972;18.944;2022-11-27T00:19:06;103254.02;;;7.50;89.39
55550;BME280;41397;49.972;18.944;2022-11-27T00:22:07;103245.25;;;7.40;88.95
55550;BME280;41397;49.972;18.944;2022-11-27T00:25:08;103250.35;;;7.20;86.84
55550;BME280;41397;49.972;18.944;2022-11-27T00:28:10;103253.17;;;7.17;87.48
55550;BME280;41397;49.972;18.944;2022-11-27T00:31:17;103248.50;;;7.22;86.88
55550;BME280;41397;49.972;18.944;2022-11-27T00:34:19;103250.74;;;7.06;86.33
55550;BME280;41397;49.972;18.944;2022-11-27T00:37:20;103250.06;;;6.98;86.09
55550;BME280;41397;49.972;18.944;2022-11-27T00:40:21;103251.21;;;6.89;85.85
55550;BME280;41397;49.972;18.944;2022-11-27T00:43:22;103250.63;;;6.76;86.03
55550;BME280;41397;49.972;18.944;2022-11-27T00:46:26;103250.52;;;6.81;85.84
55550;BME280;41397;49.972;18.944;2022-11-27T00:49:28;103240.67;;;6.77;86.06
55550;BME280;41397;49.972;18.944;2022-11-27T00:52:29;103249.63;;;6.80;85.67
55550;BME280;41397;49.972;18.944;2022-11-27T00:55:30;103239.13;;;6.66;85.20
55550;BME280;41397;49.972;18.944;2022-11-27T00:58:32;103248.51;;;6.55;85.87
55550;BME280;41397;49.972;18.944;2022-11-27T01:01:36;103250.11;;;6.62;85.90
55550;BME280;41397;49.972;18.944;2022-11-27T01:04:38;103248.14;;;6.69;85.90
55550;BME280;41397;49.972;18.944;2022-11-27T01:07:39;103249.34;;;6.57;85.97
55550;BME280;41397;49.972;18.944;2022-11-27T01:10:48;103246.31;;;6.69;85.99
55550;BME280;41397;49.972;18.944;2022-11-27T01:13:50;103251.78;;;6.67;85.59
55550;BME280;41397;49.972;18.944;2022-11-27T01:16:52;103245.72;;;6.58;85.03
55550;BME280;41397;49.972;18.944;2022-11-27T01:19:53;103254.69;;;6.60;85.47
55550;BME280;41397;49.972;18.944;2022-11-27T01:22:54;103246.40;;;6.66;85.71
55550;BME280;41397;49.972;18.944;2022-11-27T01:25:55;103253.42;;;6.75;85.85
55550;BME280;41397;49.972;18.944;2022-11-27T01:28:57;103238.84;;;6.77;85.42
55550;BME280;41397;49.972;18.944;2022-11-27T01:31:58;103240.67;;;6.77;85.60
55550;BME280;41397;49.972;18.944;2022-11-27T01:34:59;103242.43;;;6.79;85.53
55550;BME280;41397;49.972;18.944;2022-11-27T01:38:01;103248.84;;;6.77;85.62
55550;BME280;41397;49.972;18.944;2022-11-27T01:41:07;103245.34;;;6.72;86.04
55550;BME280;41397;49.972;18.944;2022-11-27T01:47:34;103233.51;;;6.73;86.44
55550;BME280;41397;49.972;18.944;2022-11-27T01:50:39;103238.80;;;6.79;86.58
55550;BME280;41397;49.972;18.944;2022-11-27T01:53:41;103239.06;;;6.68;86.54
55550;BME280;41397;49.972;18.944;2022-11-27T01:56:45;103230.88;;;6.70;86.49
55550;BME280;41397;49.972;18.944;2022-11-27T01:59:50;103239.06;;;6.68;86.95
55550;BME280;41397;49.972;18.944;2022-11-27T02:02:51;103239.93;;;6.70;87.01
55550;BME280;41397;49.972;18.944;2022-11-27T02:05:53;103242.54;;;6.75;87.03
55550;BME280;41397;49.972;18.944;2022-11-27T02:08:55;103244.23;;;6.79;86.89
55550;BME280;41397;49.972;18.944;2022-11-27T02:21:44;103234.18;;;6.82;87.08
55550;BME280;41397;49.972;18.944;2022-11-27T02:34:59;103246.03;;;6.80;87.42
55550;BME280;41397;49.972;18.944;2022-11-27T02:38:13;103247.00;;;6.77;87.66
55550;BME280;41397;49.972;18.944;2022-11-27T02:41:21;103254.30;;;6.75;87.98
55550;BME280;41397;49.972;18.944;2022-11-27T02:44:27;103250.70;;;6.75;88.24
55550;BME280;41397;49.972;18.944;2022-11-27T02:47:31;103256.95;;;6.78;88.25
55550;BME280;41397;49.972;18.944;2022-11-27T02:50:35;103256.08;;;6.76;88.09
55550;BME280;41397;49.972;18.944;2022-11-27T02:53:48;103257.38;;;6.61;88.45
55550;BME280;41397;49.972;18.944;2022-11-27T02:56:53;103262.37;;;6.44;89.07
55550;BME280;41397;49.972;18.944;2022-11-27T02:59:57;103252.20;;;6.52;89.39
55550;BME280;41397;49.972;18.944;2022-11-27T03:03:05;103259.66;;;6.44;89.41
55550;BME280;41397;49.972;18.944;2022-11-27T03:06:11;103264.13;;;6.47;89.75
55550;BME280;41397;49.972;18.944;2022-11-27T03:09:17;103268.64;;;6.46;89.75
55550;BME280;41397;49.972;18.944;2022-11-27T03:12:20;103262.65;;;6.32;89.96
55550;BME280;41397;49.972;18.944;2022-11-27T03:15:23;103265.64;;;6.21;90.53
55550;BME280;41397;49.972;18.944;2022-11-27T03:18:36;103274.26;;;6.01;90.42
55550;BME280;41397;49.972;18.944;2022-11-27T03:21:40;103269.10;;;5.87;90.88
55550;BME280;41397;49.972;18.944;2022-11-27T03:24:42;103260.74;;;5.98;91.03
55550;BME280;41397;49.972;18.944;2022-11-27T03:30:57;103265.86;;;6.12;90.76
55550;BME280;41397;49.972;18.944;2022-11-27T03:33:59;103263.15;;;6.12;90.86
55550;BME280;41397;49.972;18.944;2022-11-27T03:37:01;103264.10;;;6.09;90.68
55550;BME280;41397;49.972;18.944;2022-11-27T03:40:04;103262.20;;;6.13;90.56
55550;BME280;41397;49.972;18.944;2022-11-27T03:43:14;103255.16;;;6.04;90.75
55550;BME280;41397;49.972;18.944;2022-11-27T03:52:57;103259.94;;;5.91;91.12
55550;BME280;41397;49.972;18.944;2022-11-27T03:56:17;103261.63;;;5.98;91.64
55550;BME280;41397;49.972;18.944;2022-11-27T03:59:18;103254.37;;;5.99;91.36
55550;BME280;41397;49.972;18.944;2022-11-27T04:02:28;103265.33;;;5.94;91.65
55550;BME280;41397;49.972;18.944;2022-11-27T04:05:34;103264.43;;;5.95;91.26
55550;BME280;41397;49.972;18.944;2022-11-27T04:08:35;103259.90;;;5.94;91.17
55550;BME280;41397;49.972;18.944;2022-11-27T04:11:37;103254.52;;;5.91;91.04
55550;BME280;41397;49.972;18.944;2022-11-27T04:14:38;103257.38;;;5.85;91.73
55550;BME280;41397;49.972;18.944;2022-11-27T04:17:42;103262.88;;;5.82;91.52
55550;BME280;41397;49.972;18.944;2022-11-27T04:20:43;103255.99;;;5.66;91.69
55550;BME280;41397;49.972;18.944;2022-11-27T04:23:45;103258.88;;;5.58;92.60
55550;BME280;41397;49.972;18.944;2022-11-27T04:26:46;103261.38;;;5.67;92.46
55550;BME280;41397;49.972;18.944;2022-11-27T04:29:50;103255.17;;;5.62;92.60
55550;BME280;41397;49.972;18.944;2022-11-27T04:32:52;103248.80;;;5.63;92.74
55550;BME280;41397;49.972;18.944;2022-11-27T04:35:53;103260.33;;;5.74;92.39
55550;BME280;41397;49.972;18.944;2022-11-27T04:38:54;103260.56;;;5.64;92.25
55550;BME280;41397;49.972;18.944;2022-11-27T04:41:58;103268.18;;;5.46;92.05
55550;BME280;41397;49.972;18.944;2022-11-27T04:45:00;103266.37;;;5.45;92.07
55550;BME280;41397;49.972;18.944;2022-11-27T04:48:01;103262.98;;;5.36;91.85
55550;BME280;41397;49.972;18.944;2022-11-27T04:51:03;103258.34;;;5.41;91.63
55550;BME280;41397;49.972;18.944;2022-11-27T04:54:07;103273.74;;;5.40;91.46
55550;BME280;41397;49.972;18.944;2022-11-27T04:57:08;103265.00;;;5.24;91.70
55550;BME280;41397;49.972;18.944;2022-11-27T05:00:10;103265.89;;;5.25;91.83
55550;BME280;41397;49.972;18.944;2022-11-27T05:03:12;103260.34;;;5.31;91.90
55550;BME280;41397;49.972;18.944;2022-11-27T05:06:15;103261.56;;;5.16;92.08
55550;BME280;41397;49.972;18.944;2022-11-27T05:09:17;103260.33;;;5.32;92.14
55550;BME280;41397;49.972;18.944;2022-11-27T05:12:18;103261.07;;;5.39;91.58
55550;BME280;41397;49.972;18.944;2022-11-27T05:15:19;103257.60;;;5.32;91.59
55550;BME280;41397;49.972;18.944;2022-11-27T05:18:23;103261.16;;;5.34;91.69
55550;BME280;41397;49.972;18.944;2022-11-27T05:21:24;103259.36;;;5.35;91.73
55550;BME280;41397;49.972;18.944;2022-11-27T05:24:27;103255.80;;;5.31;91.62
55550;BME280;41397;49.972;18.944;2022-11-27T05:27:28;103256.13;;;5.16;92.26
55550;BME280;41397;49.972;18.944;2022-11-27T05:30:31;103252.52;;;5.16;92.31
55550;BME280;41397;49.972;18.944;2022-11-27T05:33:32;103266.37;;;5.00;93.08
55550;BME280;41397;49.972;18.944;2022-11-27T05:36:34;103253.75;;;4.99;93.12
55550;BME280;41397;49.972;18.944;2022-11-27T05:39:35;103249.95;;;5.08;92.98
55550;BME280;41397;49.972;18.944;2022-11-27T05:42:39;103259.88;;;5.09;93.08
55550;BME280;41397;49.972;18.944;2022-11-27T05:45:40;103256.97;;;5.18;93.02
55550;BME280;41397;49.972;18.944;2022-11-27T05:48:41;103257.72;;;5.26;92.62
55550;BME280;41397;49.972;18.944;2022-11-27T05:51:43;103246.77;;;5.32;92.66
55550;BME280;41397;49.972;18.944;2022-11-27T05:54:47;103257.72;;;5.26;92.21
55550;BME280;41397;49.972;18.944;2022-11-27T05:57:48;103248.68;;;5.26;91.96
55550;BME280;41397;49.972;18.944;2022-11-27T06:00:50;103241.21;;;5.37;92.02
55550;BME280;41397;49.972;18.944;2022-11-27T06:03:51;103241.21;;;5.37;91.72
55550;BME280;41397;49.972;18.944;2022-11-27T06:06:55;103243.82;;;5.43;91.84
55550;BME280;41397;49.972;18.944;2022-11-27T06:09:56;103248.52;;;5.35;91.99
55550;BME280;41397;49.972;18.944;2022-11-27T06:12:57;103235.85;;;5.34;92.09
55550;BME280;41397;49.972;18.944;2022-11-27T06:16:06;103244.13;;;5.28;92.20
55550;BME280;41397;49.972;18.944;2022-11-27T06:19:08;103246.97;;;5.22;92.33
55550;BME280;41397;49.972;18.944;2022-11-27T06:22:09;103242.34;;;5.27;92.61
55550;BME280;41397;49.972;18.944;2022-11-27T06:25:10;103245.22;;;5.19;92.88
55550;BME280;41397;49.972;18.944;2022-11-27T06:28:12;103249.63;;;5.23;92.65
55550;BME280;41397;49.972;18.944;2022-11-27T06:31:16;103242.45;;;5.21;92.81
55550;BME280;41397;49.972;18.944;2022-11-27T06:34:17;103239.65;;;5.25;92.74
55550;BME280;41397;49.972;18.944;2022-11-27T06:37:19;103231.59;;;5.21;92.74
55550;BME280;41397;49.972;18.944;2022-11-27T06:40:20;103235.09;;;5.27;93.08
55550;BME280;41397;49.972;18.944;2022-11-27T06:43:21;103241.39;;;5.29;92.83
55550;BME280;41397;49.972;18.944;2022-11-27T06:46:23;103238.77;;;5.25;93.14
55550;BME280;41397;49.972;18.944;2022-11-27T06:49:25;103241.55;;;5.22;93.07
55550;BME280;41397;49.972;18.944;2022-11-27T06:52:26;103245.88;;;5.32;92.95
55550;BME280;41397;49.972;18.944;2022-11-27T06:55:28;103254.63;;;5.45;92.88
55550;BME280;41397;49.972;18.944;2022-11-27T06:58:30;103249.93;;;5.53;92.61
55550;BME280;41397;49.972;18.944;2022-11-27T07:01:31;103263.41;;;5.58;92.27
55550;BME280;41397;49.972;18.944;2022-11-27T07:04:35;103260.62;;;5.62;92.12
55550;BME280;41397;49.972;18.944;2022-11-27T07:07:36;103274.27;;;5.58;91.81
55550;BME280;41397;49.972;18.944;2022-11-27T07:10:38;103268.70;;;5.64;91.76
55550;BME280;41397;49.972;18.944;2022-11-27T07:13:39;103275.80;;;5.71;91.64
55550;BME280;41397;49.972;18.944;2022-11-27T07:16:41;103272.01;;;5.78;91.40
55550;BME280;41397;49.972;18.944;2022-11-27T07:19:45;103281.08;;;5.78;91.16
55550;BME280;41397;49.972;18.944;2022-11-27T07:22:46;103274.68;;;5.81;91.01
55550;BME280;41397;49.972;18.944;2022-11-27T07:25:48;103260.09;;;5.85;90.74
55550;BME280;41397;49.972;18.944;2022-11-27T07:28:49;103263.63;;;5.89;90.78
55550;BME280;41397;49.972;18.944;2022-11-27T07:31:53;103279.92;;;5.89;90.49
55550;BME280;41397;49.972;18.944;2022-11-27T07:34:55;103271.70;;;5.92;90.60
55550;BME280;41397;49.972;18.944;2022-11-27T07:37:56;103281.75;;;5.88;90.18
55550;BME280;41397;49.972;18.944;2022-11-27T07:41:03;103271.77;;;5.89;90.11
55550;BME280;41397;49.972;18.944;2022-11-27T07:44:05;103271.84;;;5.86;90.06
55550;BME280;41397;49.972;18.944;2022-11-27T07:47:06;103266.28;;;5.93;90.08
55550;BME280;41397;49.972;18.944;2022-11-27T07:50:09;103276.99;;;5.99;89.97
55550;BME280;41397;49.972;18.944;2022-11-27T07:53:11;103276.04;;;6.02;89.95
55550;BME280;41397;49.972;18.944;2022-11-27T07:56:14;103271.64;;;5.96;89.61
55550;BME280;41397;49.972;18.944;2022-11-27T07:59:15;103270.66;;;6.00;89.46
55550;BME280;41397;49.972;18.944;2022-11-27T08:02:16;103277.78;;;6.05;89.65
55550;BME280;41397;49.972;18.944;2022-11-27T08:05:17;103281.46;;;6.02;89.40
55550;BME280;41397;49.972;18.944;2022-11-27T08:08:19;103287.70;;;6.07;89.56
55550;BME280;41397;49.972;18.944;2022-11-27T08:11:23;103284.90;;;6.10;89.28
55550;BME280;41397;49.972;18.944;2022-11-27T08:14:25;103271.30;;;6.12;89.07
55550;BME280;41397;49.972;18.944;2022-11-27T08:17:26;103275.77;;;6.14;88.95
55550;BME280;41397;49.972;18.944;2022-11-27T08:20:27;103279.32;;;6.16;88.94
55550;BME280;41397;49.972;18.944;2022-11-27T08:23:28;103271.12;;;6.19;88.87
55550;BME280;41397;49.972;18.944;2022-11-27T08:26:30;103270.91;;;6.27;88.63
55550;BME280;41397;49.972;18.944;2022-11-27T08:29:31;103277.30;;;6.25;88.58
55550;BME280;41397;49.972;18.944;2022-11-27T08:32:39;103292.41;;;6.38;88.80
55550;BME280;41397;49.972;18.944;2022-11-27T08:35:48;103286.70;;;6.49;88.72
55550;BME280;41397;49.972;18.944;2022-11-27T08:38:50;103277.41;;;6.57;88.72
55550;BME280;41397;49.972;18.944;2022-11-27T08:41:52;103282.64;;;6.66;88.22
55550;BME280;41397;49.972;18.944;2022-11-27T08:44:53;103269.74;;;6.75;88.46
55550;BME280;41397;49.972;18.944;2022-11-27T08:47:54;103275.76;;;6.87;88.41
55550;BME280;41397;49.972;18.944;2022-11-27T08:50:55;103274.63;;;6.95;87.91
55550;BME280;41397;49.972;18.944;2022-11-27T08:53:57;103273.46;;;7.05;87.70
55550;BME280;41397;49.972;18.944;2022-11-27T08:56:58;103270.33;;;7.20;87.79
55550;BME280;41397;49.972;18.944;2022-11-27T08:59:59;103266.45;;;7.29;87.03
55550;BME280;41397;49.972;18.944;2022-11-27T09:03:00;103266.71;;;7.51;86.20
55550;BME280;41397;49.972;18.944;2022-11-27T09:06:05;103261.63;;;7.70;85.92
55550;BME280;41397;49.972;18.944;2022-11-27T09:09:07;103259.27;;;7.87;84.97
55550;BME280;41397;49.972;18.944;2022-11-27T09:12:08;103265.93;;;7.77;83.73
55550;BME280;41397;49.972;18.944;2022-11-27T09:15:10;103263.76;;;7.88;83.89
55550;BME280;41397;49.972;18.944;2022-11-27T09:18:12;103255.45;;;7.93;82.70
55550;BME280;41397;49.972;18.944;2022-11-27T09:21:15;103241.31;;;7.80;82.01
55550;BME280;41397;49.972;18.944;2022-11-27T09:24:16;103245.27;;;7.70;83.15
55550;BME280;41397;49.972;18.944;2022-11-27T09:27:18;103239.60;;;7.77;82.86
55550;BME280;41397;49.972;18.944;2022-11-27T09:30:20;103243.90;;;7.85;83.00
55550;BME280;41397;49.972;18.944;2022-11-27T09:33:22;103238.24;;;7.91;83.35
55550;BME280;41397;49.972;18.944;2022-11-27T09:36:25;103235.35;;;7.97;82.52
55550;BME280;41397;49.972;18.944;2022-11-27T09:39:28;103235.48;;;7.92;82.56
55550;BME280;41397;49.972;18.944;2022-11-27T09:42:40;103241.63;;;7.99;82.09
55550;BME280;41397;49.972;18.944;2022-11-27T09:45:48;103233.41;;;8.00;82.61
55550;BME280;41397;49.972;18.944;2022-11-27T09:48:52;103228.71;;;8.06;81.92
55550;BME280;41397;49.972;18.944;2022-11-27T09:52:04;103226.10;;;8.03;81.74
55550;BME280;41397;49.972;18.944;2022-11-27T09:55:15;103231.77;;;7.95;82.04
55550;BME280;41397;49.972;18.944;2022-11-27T09:58:25;103229.59;;;8.06;81.98
55550;BME280;41397;49.972;18.944;2022-11-27T10:01:32;103221.07;;;8.17;81.46
55550;BME280;41397;49.972;18.944;2022-11-27T10:04:33;103219.19;;;8.19;81.36
55550;BME280;41397;49.972;18.944;2022-11-27T10:07:45;103226.52;;;8.17;81.28
55550;BME280;41397;49.972;18.944;2022-11-27T10:10:55;103222.39;;;8.32;80.77
55550;BME280;41397;49.972;18.944;2022-11-27T10:14:14;103209.67;;;8.32;79.60
55550;BME280;41397;49.972;18.944;2022-11-27T10:26:53;103209.70;;;8.31;80.31
55550;BME280;41397;49.972;18.944;2022-11-27T10:29:58;103210.44;;;8.36;80.14
55550;BME280;41397;49.972;18.944;2022-11-27T10:33:03;103207.86;;;8.31;80.23
55550;BME280;41397;49.972;18.944;2022-11-27T10:36:17;103195.97;;;8.34;80.11
55550;BME280;41397;49.972;18.944;2022-11-27T10:42:36;103199.68;;;8.31;79.18
55550;BME280;41397;49.972;18.944;2022-11-27T10:45:46;103188.95;;;8.27;79.52
55550;BME280;41397;49.972;18.944;2022-11-27T10:48:49;103187.23;;;8.24;80.04
55550;BME280;41397;49.972;18.944;2022-11-27T10:51:51;103188.99;;;8.25;80.38
55550;BME280;41397;49.972;18.944;2022-11-27T10:54:55;103183.79;;;8.17;80.17
55550;BME280;41397;49.972;18.944;2022-11-27T10:58:07;103177.67;;;8.11;80.27
55550;BME280;41397;49.972;18.944;2022-11-27T11:01:11;103177.67;;;8.11;80.77
55550;BME280;41397;49.972;18.944;2022-11-27T11:04:15;103173.20;;;8.08;81.05
55550;BME280;41397;49.972;18.944;2022-11-27T11:07:26;103171.27;;;8.12;80.92
55550;BME280;41397;49.972;18.944;2022-11-27T11:10:31;103165.88;;;8.10;80.46
55550;BME280;41397;49.972;18.944;2022-11-27T11:13:44;103171.96;;;7.90;80.38
55550;BME280;41397;49.972;18.944;2022-11-27T11:16:46;103171.12;;;7.88;80.46
55550;BME280;41397;49.972;18.944;2022-11-27T11:19:48;103161.24;;;7.86;80.83
55550;BME280;41397;49.972;18.944;2022-11-27T11:22:49;103143.09;;;7.85;80.56
55550;BME280;41397;49.972;18.944;2022-11-27T11:25:54;103144.53;;;7.68;80.78
55550;BME280;41397;49.972;18.944;2022-11-27T11:28:59;103164.38;;;7.72;80.96
55550;BME280;41397;49.972;18.944;2022-11-27T11:32:08;103163.35;;;7.76;81.61
55550;BME280;41397;49.972;18.944;2022-11-27T11:38:31;103161.52;;;7.76;81.80
55550;BME280;41397;49.972;18.944;2022-11-27T11:41:37;103169.90;;;7.70;81.90
55550;BME280;41397;49.972;18.944;2022-11-27T11:44:39;103159.20;;;7.64;81.99
55550;BME280;41397;49.972;18.944;2022-11-27T11:47:47;103151.17;;;7.60;82.23
55550;BME280;41397;49.972;18.944;2022-11-27T11:51:06;103155.84;;;7.56;82.37
55550;BME280;41397;49.972;18.944;2022-11-27T11:57:26;103150.63;;;7.48;81.52
55550;BME280;41397;49.972;18.944;2022-11-27T12:00:37;103148.88;;;7.46;81.24
55550;BME280;41397;49.972;18.944;2022-11-27T12:10:38;103124.91;;;7.57;81.09
55550;BME280;41397;49.972;18.944;2022-11-27T12:32:51;103108.24;;;7.68;80.84
55550;BME280;41397;49.972;18.944;2022-11-27T12:36:07;103113.45;;;7.75;80.42
55550;BME280;41397;49.972;18.944;2022-11-27T12:39:21;103112.28;;;7.83;80.30
55550;BME280;41397;49.972;18.944;2022-11-27T12:42:29;103112.34;;;7.81;79.76
55550;BME280;41397;49.972;18.944;2022-11-27T12:45:43;103106.90;;;7.81;79.75
55550;BME280;41397;49.972;18.944;2022-11-27T12:48:54;103105.05;;;7.82;79.99
55550;BME280;41397;49.972;18.944;2022-11-27T12:52:06;103102.22;;;7.85;79.92
55550;BME280;41397;49.972;18.944;2022-11-27T12:58:26;103101.49;;;7.79;78.97
55550;BME280;41397;49.972;18.944;2022-11-27T13:01:44;103107.92;;;7.77;79.64
55550;BME280;41397;49.972;18.944;2022-11-27T13:11:36;103106.84;;;7.83;79.28
55550;BME280;41397;49.972;18.944;2022-11-27T13:14:40;103101.30;;;7.86;79.69
55550;BME280;41397;49.972;18.944;2022-11-27T13:17:44;103103.97;;;7.87;80.51
55550;BME280;41397;49.972;18.944;2022-11-27T13:20:51;103110.07;;;7.67;80.41
55550;BME280;41397;49.972;18.944;2022-11-27T13:23:53;103100.28;;;7.62;80.46
55550;BME280;41397;49.972;18.944;2022-11-27T13:30:22;103108.45;;;7.62;80.61
55550;BME280;41397;49.972;18.944;2022-11-27T13:33:32;103108.63;;;7.55;80.66
55550;BME280;41397;49.972;18.944;2022-11-27T13:36:39;103107.38;;;7.38;81.01
55550;BME280;41397;49.972;18.944;2022-11-27T13:39:42;103103.54;;;7.45;81.25
55550;BME280;41397;49.972;18.944;2022-11-27T13:42:48;103105.21;;;7.49;81.35
55550;BME280;41397;49.972;18.944;2022-11-27T13:49:20;103097.72;;;7.27;80.86
55550;BME280;41397;49.972;18.944;2022-11-27T13:52:26;103106.60;;;7.34;81.36
55550;BME280;41397;49.972;18.944;2022-11-27T13:55:35;103094.08;;;7.28;81.14
55550;BME280;41397;49.972;18.944;2022-11-27T13:58:39;103095.07;;;7.26;80.97
55550;BME280;41397;49.972;18.944;2022-11-27T14:04:53;103091.62;;;7.19;81.19
55550;BME280;41397;49.972;18.944;2022-11-27T14:07:55;103096.96;;;7.22;81.04
55550;BME280;41397;49.972;18.944;2022-11-27T14:10:59;103094.99;;;7.27;80.95
55550;BME280;41397;49.972;18.944;2022-11-27T14:17:44;103099.52;;;7.28;81.24
55550;BME280;41397;49.972;18.944;2022-11-27T14:20:31;103097.72;;;7.27;80.95
55550;BME280;41397;49.972;18.944;2022-11-27T14:23:53;103100.93;;;7.12;80.97
55550;BME280;41397;49.972;18.944;2022-11-27T14:26:43;103093.55;;;7.16;81.09
55550;BME280;41397;49.972;18.944;2022-11-27T14:29:45;103095.55;;;7.09;81.13
55550;BME280;41397;49.972;18.944;2022-11-27T14:32:47;103102.04;;;7.05;81.69
55550;BME280;41397;49.972;18.944;2022-11-27T14:35:52;103100.27;;;7.04;81.57
55550;BME280;41397;49.972;18.944;2022-11-27T14:38:55;103097.68;;;6.99;81.31
55550;BME280;41397;49.972;18.944;2022-11-27T14:42:04;103094.77;;;7.05;82.02
55550;BME280;41397;49.972;18.944;2022-11-27T14:45:11;103088.34;;;7.08;82.04
55550;BME280;41397;49.972;18.944;2022-11-27T14:48:39;103093.79;;;7.08;81.59
55550;BME280;41397;49.972;18.944;2022-11-27T14:51:31;103102.80;;;7.10;81.49
55550;BME280;41397;49.972;18.944;2022-11-27T14:54:37;103092.90;;;7.07;81.90
55550;BME280;41397;49.972;18.944;2022-11-27T14:57:40;103092.14;;;7.02;81.79
55550;BME280;41397;49.972;18.944;2022-11-27T15:00:51;103092.10;;;7.04;81.91
55550;BME280;41397;49.972;18.944;2022-11-27T15:04:00;103087.55;;;7.04;81.83
55550;BME280;41397;49.972;18.944;2022-11-27T15:07:14;103079.23;;;7.09;81.78
55550;BME280;41397;49.972;18.944;2022-11-27T15:13:33;103091.26;;;7.02;82.10
55550;BME280;41397;49.972;18.944;2022-11-27T15:16:44;103082.27;;;6.98;82.15
55550;BME280;41397;49.972;18.944;2022-11-27T15:19:46;103076.99;;;6.94;82.53
55550;BME280;41397;49.972;18.944;2022-11-27T15:22:53;103064.27;;;6.94;82.80
55550;BME280;41397;49.972;18.944;2022-11-27T15:26:05;103063.41;;;6.92;82.66
55550;BME280;41397;49.972;18.944;2022-11-27T15:32:25;103050.02;;;6.86;82.97
55550;BME280;41397;49.972;18.944;2022-11-27T15:35:30;103052.17;;;6.75;83.53
55550;BME280;41397;49.972;18.944;2022-11-27T15:38:36;103048.50;;;6.76;83.82
55550;BME280;41397;49.972;18.944;2022-11-27T15:41:37;103046.16;;;6.63;83.73
55550;BME280;41397;49.972;18.944;2022-11-27T15:44:39;103045.81;;;6.43;84.79
55550;BME280;41397;49.972;18.944;2022-11-27T15:47:40;103053.84;;;6.48;85.21
55550;BME280;41397;49.972;18.944;2022-11-27T15:50:42;103043.96;;;6.45;85.20
55550;BME280;41397;49.972;18.944;2022-11-27T15:53:43;103046.31;;;6.57;85.25
55550;BME280;41397;49.972;18.944;2022-11-27T15:56:45;103046.09;;;6.65;84.84
55550;BME280;41397;49.972;18.944;2022-11-27T15:59:47;103044.19;;;6.69;84.62
55550;BME280;41397;49.972;18.944;2022-11-27T16:02:49;103038.98;;;6.61;84.58
55550;BME280;41397;49.972;18.944;2022-11-27T16:05:52;103048.59;;;6.73;84.47
55550;BME280;41397;49.972;18.944;2022-11-27T16:08:58;103044.90;;;6.75;84.41
55550;BME280;41397;49.972;18.944;2022-11-27T16:12:00;103043.13;;;6.74;84.26
55550;BME280;41397;49.972;18.944;2022-11-27T16:15:01;103036.03;;;6.69;84.38
55550;BME280;41397;49.972;18.944;2022-11-27T16:18:02;103033.16;;;6.73;84.04
55550;BME280;41397;49.972;18.944;2022-11-27T16:21:06;103026.94;;;6.70;83.89
55550;BME280;41397;49.972;18.944;2022-11-27T16:24:11;103027.95;;;6.65;84.11
55550;BME280;41397;49.972;18.944;2022-11-27T16:27:12;103031.52;;;6.67;84.32
55550;BME280;41397;49.972;18.944;2022-11-27T16:30:14;103030.77;;;6.62;84.10
55550;BME280;41397;49.972;18.944;2022-11-27T16:33:15;103023.67;;;6.57;84.42
55550;BME280;41397;49.972;18.944;2022-11-27T16:36:21;103019.09;;;6.59;84.46
55550;BME280;41397;49.972;18.944;2022-11-27T16:39:22;103022.87;;;6.55;84.64
55550;BME280;41397;49.972;18.944;2022-11-27T16:42:24;103010.24;;;6.52;84.61
55550;BME280;41397;49.972;18.944;2022-11-27T16:45:25;103013.19;;;6.44;84.96
55550;BME280;41397;49.972;18.944;2022-11-27T16:48:26;103007.07;;;6.36;84.92
55550;BME280;41397;49.972;18.944;2022-11-27T16:51:29;103005.45;;;6.29;85.28
55550;BME280;41397;49.972;18.944;2022-11-27T16:54:33;103005.32;;;6.34;85.69
55550;BME280;41397;49.972;18.944;2022-11-27T16:57:34;103002.48;;;6.38;85.38
55550;BME280;41397;49.972;18.944;2022-11-27T17:00:35;103010.39;;;6.15;86.23
55550;BME280;41397;49.972;18.944;2022-11-27T17:03:37;102999.63;;;6.10;86.44
55550;BME280;41397;49.972;18.944;2022-11-27T17:06:39;103006.04;;;6.08;86.64
55550;BME280;41397;49.972;18.944;2022-11-27T17:09:40;102997.98;;;6.05;86.49
55550;BME280;41397;49.972;18.944;2022-11-27T17:12:42;103005.59;;;5.90;86.97
55550;BME280;41397;49.972;18.944;2022-11-27T17:15:43;103001.77;;;5.99;86.92
55550;BME280;41397;49.972;18.944;2022-11-27T17:18:45;102994.47;;;6.01;87.01
55550;BME280;41397;49.972;18.944;2022-11-27T17:21:47;103000.99;;;5.94;86.79
55550;BME280;41397;49.972;18.944;2022-11-27T17:24:48;102996.50;;;5.91;87.27
55550;BME280;41397;49.972;18.944;2022-11-27T17:27:51;102978.27;;;5.98;87.17
55550;BME280;41397;49.972;18.944;2022-11-27T17:30:52;102986.57;;;5.90;87.39
55550;BME280;41397;49.972;18.944;2022-11-27T17:33:54;102990.38;;;5.83;87.54
55550;BME280;41397;49.972;18.944;2022-11-27T17:36:59;102977.58;;;5.88;87.73
55550;BME280;41397;49.972;18.944;2022-11-27T17:40:00;102968.54;;;5.88;87.65
55550;BME280;41397;49.972;18.944;2022-11-27T17:43:01;102976.02;;;5.78;88.05
55550;BME280;41397;49.972;18.944;2022-11-27T17:46:10;102976.77;;;5.85;87.80
55550;BME280;41397;49.972;18.944;2022-11-27T17:49:11;102964.71;;;5.96;87.85